Time;durP1;ratioP1;P1;durP2;ratioP2;P2;SDS_P1;SDS_P2;PMS_P1;PMS_P2;Temp;Humidity;BMP_temperature;BMP_pressure;BME280_temperature;BME280_humidity;BME280_pressure;Samples;Min_cycle;Max_cycle;Signal;HPM_P1;HPM_P2
2022/05/26 00:01:04;;;;;;;3.78;2.90;;;;;;;;;;5128287;27;20238;-18
2022/05/26 00:03:32;;;;;;;4.95;2.78;;;;;;;;;;5131420;27;20219;-19
2022/05/26 00:06:01;;;;;;;4.93;2.70;;;;;;;;;;5131443;27;20224;-18
2022/05/26 00:08:28;;;;;;;6.13;3.03;;;;;;;;;;5131171;27;20953;-18
2022/05/26 00:10:56;;;;;;;5.10;2.80;;;;;;;;;;5129958;27;20223;-19
2022/05/26 00:13:23;;;;;;;3.70;3.28;;;;;;;;;;5130563;27;20612;-18
2022/05/26 00:15:50;;;;;;;4.15;2.78;;;;;;;;;;5125369;27;20224;-19
2022/05/26 00:18:18;;;;;;;5.53;3.45;;;;;;;;;;5131088;27;20388;-18
2022/05/26 00:20:45;;;;;;;3.88;3.08;;;;;;;;;;5131263;27;20227;-18
2022/05/26 00:23:14;;;;;;;6.15;3.03;;;;;;;;;;5130326;27;20242;-18
2022/05/26 00:25:41;;;;;;;4.68;3.10;;;;;;;;;;5127405;27;20227;-18
2022/05/26 00:28:08;;;;;;;7.28;3.55;;;;;;;;;;5126720;27;20212;-18
2022/05/26 00:30:37;;;;;;;5.03;3.10;;;;;;;;;;5130037;27;20385;-18
2022/05/26 00:33:05;;;;;;;4.40;3.15;;;;;;;;;;5128197;27;20235;-18
2022/05/26 00:35:34;;;;;;;5.30;3.17;;;;;;;;;;5134305;27;20990;-18
2022/05/26 00:38:02;;;;;;;5.10;3.35;;;;;;;;;;5133769;27;20231;-18
2022/05/26 00:40:31;;;;;;;6.25;3.42;;;;;;;;;;5135198;27;20329;-19
2022/05/26 00:42:58;;;;;;;5.93;3.53;;;;;;;;;;5134075;27;20224;-18
2022/05/26 00:45:26;;;;;;;4.25;3.17;;;;;;;;;;5131152;27;20232;-19
2022/05/26 00:47:53;;;;;;;4.45;3.80;;;;;;;;;;5134222;27;20228;-17
2022/05/26 00:50:21;;;;;;;5.68;3.67;;;;;;;;;;5134288;27;20223;-17
2022/05/26 00:52:50;;;;;;;7.10;3.45;;;;;;;;;;5134268;27;21058;-17
2022/05/26 00:55:19;;;;;;;5.82;3.60;;;;;;;;;;5132510;27;20756;-18
2022/05/26 00:57:50;;;;;;;5.55;3.65;;;;;;;;;;5133959;27;20238;-18
2022/05/26 01:00:18;;;;;;;4.65;3.90;;;;;;;;;;5133025;27;21022;-18
2022/05/26 01:02:47;;;;;;;4.28;3.85;;;;;;;;;;5133921;27;20954;-18
2022/05/26 01:05:16;;;;;;;7.03;4.00;;;;;;;;;;5132527;27;20231;-19
2022/05/26 01:07:43;;;;;;;5.55;4.43;;;;;;;;;;5134042;27;20232;-17
2022/05/26 01:10:11;;;;;;;7.40;4.68;;;;;;;;;;5134104;27;20250;-18
2022/05/26 01:12:39;;;;;;;7.07;4.82;;;;;;;;;;5115801;27;20236;-18
2022/05/26 01:15:08;;;;;;;8.13;5.05;;;;;;;;;;5133645;27;20220;-18
2022/05/26 01:17:39;;;;;;;7.60;5.20;;;;;;;;;;5126770;27;20241;-18
2022/05/26 01:20:25;;;;;;;8.95;4.72;;;;;;;;;;5130450;27;20239;-18
2022/05/26 01:23:11;;;;;;;7.13;4.93;;;;;;;;;;5130627;27;20239;-18
2022/05/26 01:25:49;;;;;;;8.15;4.93;;;;;;;;;;5111357;27;21204;-18
2022/05/26 01:28:20;;;;;;;6.60;5.68;;;;;;;;;;5123642;27;20234;-18
2022/05/26 01:30:50;;;;;;;9.57;6.07;;;;;;;;;;5132111;27;20208;-18
2022/05/26 01:33:35;;;;;;;7.05;5.40;;;;;;;;;;5133357;27;20237;-18
2022/05/26 01:36:16;;;;;;;8.65;5.45;;;;;;;;;;5132893;27;20223;-18
2022/05/26 01:38:46;;;;;;;7.53;5.35;;;;;;;;;;5126615;27;20231;-18
2022/05/26 01:41:13;;;;;;;7.68;5.05;;;;;;;;;;5131627;27;20231;-18
2022/05/26 01:43:42;;;;;;;9.05;5.65;;;;;;;;;;5125536;27;20227;-18
2022/05/26 01:46:11;;;;;;;8.13;5.25;;;;;;;;;;5124079;27;20223;-18
2022/05/26 01:48:41;;;;;;;6.95;5.55;;;;;;;;;;5133686;27;20231;-19
2022/05/26 01:51:12;;;;;;;6.85;5.13;;;;;;;;;;5131555;27;20230;-18
2022/05/26 01:53:42;;;;;;;7.13;5.57;;;;;;;;;;5124623;27;20274;-18
2022/05/26 01:56:09;;;;;;;9.95;5.95;;;;;;;;;;5125289;27;20211;-18
2022/05/26 01:58:38;;;;;;;8.18;5.90;;;;;;;;;;5133039;27;20231;-18
2022/05/26 02:01:08;;;;;;;8.60;5.75;;;;;;;;;;5131985;27;20604;-18
2022/05/26 02:03:35;;;;;;;6.88;5.45;;;;;;;;;;5132014;27;20231;-18
2022/05/26 02:06:06;;;;;;;6.72;5.68;;;;;;;;;;5132978;27;20243;-18
2022/05/26 02:08:34;;;;;;;9.35;6.35;;;;;;;;;;5132738;27;20231;-18
2022/05/26 02:11:03;;;;;;;9.15;5.95;;;;;;;;;;5133204;27;20227;-18
2022/05/26 02:13:31;;;;;;;9.13;6.65;;;;;;;;;;5131328;27;20282;-18
2022/05/26 02:15:59;;;;;;;8.65;5.85;;;;;;;;;;5131617;27;20211;-18
2022/05/26 02:18:27;;;;;;;6.90;5.78;;;;;;;;;;5131917;27;20702;-18
2022/05/26 02:20:55;;;;;;;9.43;6.45;;;;;;;;;;5128059;27;20239;-18
2022/05/26 02:23:26;;;;;;;9.30;6.25;;;;;;;;;;5130309;27;20235;-18
2022/05/26 02:25:53;;;;;;;11.85;6.90;;;;;;;;;;5132758;27;20250;-18
2022/05/26 02:28:23;;;;;;;9.57;6.13;;;;;;;;;;5132476;27;20318;-18
2022/05/26 02:30:50;;;;;;;7.90;5.97;;;;;;;;;;5131157;27;20262;-18
2022/05/26 02:33:18;;;;;;;12.18;6.93;;;;;;;;;;5132664;27;20348;-18
2022/05/26 02:35:45;;;;;;;8.93;5.80;;;;;;;;;;5122357;27;20227;-18
2022/05/26 02:38:15;;;;;;;7.97;5.70;;;;;;;;;;5132512;27;20235;-19
2022/05/26 02:40:42;;;;;;;9.50;5.82;;;;;;;;;;5125111;27;20709;-18
2022/05/26 02:43:10;;;;;;;10.50;6.20;;;;;;;;;;5123533;27;20227;-18
2022/05/26 02:45:46;;;;;;;9.18;6.18;;;;;;;;;;5130338;27;20755;-18
2022/05/26 02:48:16;;;;;;;8.35;5.88;;;;;;;;;;5116838;27;20239;-18
2022/05/26 02:50:46;;;;;;;10.20;6.25;;;;;;;;;;5132276;27;20240;-17
2022/05/26 02:53:17;;;;;;;8.65;5.78;;;;;;;;;;5125664;27;20223;-18
2022/05/26 02:55:49;;;;;;;10.43;6.32;;;;;;;;;;5132218;27;20716;-18
2022/05/26 02:58:18;;;;;;;10.65;5.90;;;;;;;;;;5130652;27;20243;-18
2022/05/26 03:00:49;;;;;;;9.43;6.03;;;;;;;;;;5131050;27;20231;-17
2022/05/26 03:03:19;;;;;;;8.73;5.40;;;;;;;;;;5132459;27;20674;-19
2022/05/26 03:05:48;;;;;;;7.55;5.38;;;;;;;;;;5132314;27;20220;-18
2022/05/26 03:08:16;;;;;;;7.90;5.47;;;;;;;;;;5130579;27;20818;-18
2022/05/26 03:10:47;;;;;;;11.38;5.93;;;;;;;;;;5132183;27;21024;-18
2022/05/26 03:13:14;;;;;;;10.02;6.45;;;;;;;;;;5125118;27;20222;-18
2022/05/26 03:15:41;;;;;;;8.88;5.65;;;;;;;;;;5130926;27;20697;-17
2022/05/26 03:18:10;;;;;;;9.05;5.88;;;;;;;;;;5123074;27;20236;-18
2022/05/26 03:20:38;;;;;;;8.15;6.10;;;;;;;;;;5131765;27;20231;-18
2022/05/26 03:23:05;;;;;;;11.07;5.85;;;;;;;;;;5131463;27;20245;-18
2022/05/26 03:25:32;;;;;;;10.52;5.95;;;;;;;;;;5131370;27;20235;-18
2022/05/26 03:28:00;;;;;;;11.30;6.00;;;;;;;;;;5131963;27;20238;-18
2022/05/26 03:30:27;;;;;;;8.32;5.45;;;;;;;;;;5128364;27;20250;-18
2022/05/26 03:32:54;;;;;;;10.27;5.45;;;;;;;;;;5131059;27;20227;-18
2022/05/26 03:40:55;;;;;;;9.50;5.60;;;;;;;;;;5125669;27;20724;-18
2022/05/26 03:43:22;;;;;;;10.40;5.82;;;;;;;;;;5131681;27;20222;-18
2022/05/26 03:45:50;;;;;;;12.23;5.57;;;;;;;;;;5130081;27;20224;-18
2022/05/26 03:48:17;;;;;;;11.40;5.28;;;;;;;;;;5131603;27;20345;-19
2022/05/26 03:50:46;;;;;;;10.32;5.47;;;;;;;;;;5131756;27;20843;-18
2022/05/26 03:53:13;;;;;;;11.65;5.22;;;;;;;;;;5130277;27;20220;-18
2022/05/26 03:55:41;;;;;;;9.85;5.20;;;;;;;;;;5115106;27;20344;-18
2022/05/26 03:58:08;;;;;;;9.60;5.05;;;;;;;;;;5132233;27;20985;-18
2022/05/26 04:00:35;;;;;;;9.48;4.65;;;;;;;;;;5134172;27;20227;-18
2022/05/26 04:03:03;;;;;;;9.68;4.95;;;;;;;;;;5133703;27;20280;-18
2022/05/26 04:05:30;;;;;;;8.73;5.30;;;;;;;;;;5134871;27;20223;-17
2022/05/26 04:07:59;;;;;;;8.45;5.72;;;;;;;;;;5135107;27;20228;-17
2022/05/26 04:10:26;;;;;;;6.97;5.28;;;;;;;;;;5134929;27;20231;-18
2022/05/26 04:12:55;;;;;;;11.68;5.80;;;;;;;;;;5134958;27;20227;-18
2022/05/26 04:15:23;;;;;;;9.70;5.43;;;;;;;;;;5131631;27;20235;-18
2022/05/26 04:17:50;;;;;;;10.52;5.68;;;;;;;;;;5134741;27;20254;-18
2022/05/26 04:20:18;;;;;;;10.60;5.55;;;;;;;;;;5134667;27;20967;-19
2022/05/26 04:22:45;;;;;;;11.90;5.95;;;;;;;;;;5134257;27;20235;-18
2022/05/26 04:25:14;;;;;;;13.40;5.60;;;;;;;;;;5128671;27;20674;-19
2022/05/26 04:27:41;;;;;;;12.38;5.57;;;;;;;;;;5134723;27;20694;-18
2022/05/26 04:30:09;;;;;;;13.15;5.88;;;;;;;;;;5133884;27;20274;-18
2022/05/26 04:32:37;;;;;;;13.50;6.25;;;;;;;;;;5134253;27;20716;-18
2022/05/26 04:35:04;;;;;;;12.52;5.95;;;;;;;;;;5134553;27;20239;-18
2022/05/26 04:37:31;;;;;;;14.88;6.13;;;;;;;;;;5133351;27;20238;-19
2022/05/26 04:40:00;;;;;;;12.10;5.32;;;;;;;;;;5134167;27;20231;-19
2022/05/26 04:42:29;;;;;;;12.13;6.03;;;;;;;;;;5134258;27;21088;-18
2022/05/26 04:44:57;;;;;;;12.18;6.13;;;;;;;;;;5134490;27;20231;-18
2022/05/26 04:47:24;;;;;;;16.52;6.38;;;;;;;;;;5130434;27;20301;-18
2022/05/26 04:49:51;;;;;;;13.35;6.75;;;;;;;;;;5134419;27;20222;-18
2022/05/26 04:52:21;;;;;;;11.80;6.03;;;;;;;;;;5134002;27;20230;-18
2022/05/26 04:54:48;;;;;;;10.65;5.57;;;;;;;;;;5134428;27;20254;-19
2022/05/26 04:57:16;;;;;;;12.57;5.68;;;;;;;;;;5132368;27;20324;-18
2022/05/26 04:59:44;;;;;;;12.23;5.85;;;;;;;;;;5134200;27;20239;-18
2022/05/26 05:02:12;;;;;;;12.55;5.65;;;;;;;;;;5127505;27;21024;-18
2022/05/26 05:04:39;;;;;;;13.40;5.65;;;;;;;;;;5125961;27;20235;-18
2022/05/26 05:07:07;;;;;;;14.55;6.20;;;;;;;;;;5134242;27;20310;-18
2022/05/26 05:09:34;;;;;;;16.35;5.68;;;;;;;;;;5131391;27;20223;-17
2022/05/26 05:12:01;;;;;;;11.18;5.50;;;;;;;;;;5133127;27;20223;-18
2022/05/26 05:14:29;;;;;;;13.55;5.35;;;;;;;;;;5134051;27;20694;-18
2022/05/26 05:16:57;;;;;;;15.07;5.75;;;;;;;;;;5132606;27;20231;-18
2022/05/26 05:19:25;;;;;;;14.15;5.22;;;;;;;;;;5132531;27;20281;-18
2022/05/26 05:21:55;;;;;;;11.70;5.47;;;;;;;;;;5133692;27;20239;-18
2022/05/26 05:24:24;;;;;;;11.48;5.22;;;;;;;;;;5133278;27;20272;-18
2022/05/26 05:26:53;;;;;;;11.45;4.93;;;;;;;;;;5134206;27;20211;-17
2022/05/26 05:29:20;;;;;;;14.18;5.40;;;;;;;;;;5133763;27;20732;-18
2022/05/26 05:31:50;;;;;;;11.88;4.80;;;;;;;;;;5131838;27;20223;-18
2022/05/26 05:34:20;;;;;;;12.27;5.25;;;;;;;;;;5133469;27;20235;-17
2022/05/26 05:36:47;;;;;;;13.90;5.45;;;;;;;;;;5133018;27;20211;-18
2022/05/26 05:39:14;;;;;;;14.02;5.32;;;;;;;;;;5133622;27;20227;-18
2022/05/26 05:41:42;;;;;;;14.07;5.30;;;;;;;;;;5131735;27;20274;-18
2022/05/26 05:44:09;;;;;;;10.82;5.20;;;;;;;;;;5133390;27;20254;-18
2022/05/26 05:46:53;;;;;;;14.52;5.10;;;;;;;;;;5131888;27;20223;-18
2022/05/26 05:49:22;;;;;;;12.77;5.10;;;;;;;;;;5128733;27;20350;-18
2022/05/26 05:51:49;;;;;;;12.75;4.55;;;;;;;;;;5133602;27;20670;-18
2022/05/26 05:54:17;;;;;;;12.00;5.50;;;;;;;;;;5132042;27;20234;-18
2022/05/26 05:56:44;;;;;;;12.73;5.10;;;;;;;;;;5133304;27;20706;-18
2022/05/26 05:59:12;;;;;;;12.00;4.85;;;;;;;;;;5133666;27;20216;-18
2022/05/26 06:01:39;;;;;;;15.20;4.97;;;;;;;;;;5122847;27;20231;-18
2022/05/26 06:04:07;;;;;;;13.15;5.20;;;;;;;;;;5131832;27;20350;-19
2022/05/26 06:06:36;;;;;;;13.02;4.63;;;;;;;;;;5132955;27;20226;-18
2022/05/26 06:09:04;;;;;;;13.55;4.82;;;;;;;;;;5133059;27;20239;-18
2022/05/26 06:11:32;;;;;;;14.68;4.35;;;;;;;;;;5133147;27;20231;-17
2022/05/26 06:13:59;;;;;;;13.90;4.05;;;;;;;;;;5132971;27;20720;-18
2022/05/26 06:16:27;;;;;;;13.50;5.00;;;;;;;;;;5130508;27;20227;-18
2022/05/26 06:18:55;;;;;;;10.35;3.97;;;;;;;;;;5133004;27;20319;-18
2022/05/26 06:21:22;;;;;;;12.43;4.63;;;;;;;;;;5132230;27;21079;-18
2022/05/26 06:23:53;;;;;;;8.40;3.70;;;;;;;;;;5133053;27;20238;-18
2022/05/26 06:26:21;;;;;;;10.98;4.47;;;;;;;;;;5129963;27;20250;-18
2022/05/26 06:31:33;;;;;;;13.82;4.20;;;;;;;;;;5131450;27;20238;-18
2022/05/26 06:39:32;;;;;;;12.45;3.53;;;;;;;;;;5132899;27;20212;-18
2022/05/26 06:42:09;;;;;;;14.45;4.05;;;;;;;;;;5132496;27;20235;-18
2022/05/26 06:44:38;;;;;;;12.25;3.92;;;;;;;;;;5132523;27;21065;-18
2022/05/26 06:47:06;;;;;;;11.82;4.15;;;;;;;;;;5131143;27;20227;-18
2022/05/26 06:49:34;;;;;;;11.57;3.70;;;;;;;;;;5131223;27;21061;-18
2022/05/26 06:52:02;;;;;;;12.38;4.25;;;;;;;;;;5131981;27;20950;-18
2022/05/26 06:54:34;;;;;;;14.73;4.47;;;;;;;;;;5132418;27;20231;-19
2022/05/26 06:57:01;;;;;;;11.13;3.47;;;;;;;;;;5132666;27;20231;-18
2022/05/26 06:59:28;;;;;;;10.38;3.20;;;;;;;;;;5130303;27;20258;-17
2022/05/26 07:01:56;;;;;;;10.88;4.18;;;;;;;;;;5131210;27;20254;-18
2022/05/26 07:04:23;;;;;;;9.63;3.80;;;;;;;;;;5131907;27;20228;-18
2022/05/26 07:06:51;;;;;;;10.35;3.63;;;;;;;;;;5132340;27;20214;-18
2022/05/26 07:09:18;;;;;;;11.40;3.55;;;;;;;;;;5130178;27;20235;-18
2022/05/26 07:11:47;;;;;;;11.88;3.53;;;;;;;;;;5132511;27;21050;-18
2022/05/26 07:14:14;;;;;;;7.60;2.97;;;;;;;;;;5132101;27;20233;-18
2022/05/26 07:16:44;;;;;;;7.90;3.00;;;;;;;;;;5130570;27;20684;-18
2022/05/26 07:19:12;;;;;;;11.82;3.10;;;;;;;;;;5124391;27;20223;-18
2022/05/26 07:21:39;;;;;;;11.52;3.40;;;;;;;;;;5122005;27;21038;-18
2022/05/26 07:24:07;;;;;;;8.68;3.00;;;;;;;;;;5131752;27;20280;-18
2022/05/26 07:26:34;;;;;;;9.65;3.25;;;;;;;;;;5131966;27;20211;-18
2022/05/26 07:29:03;;;;;;;10.07;3.22;;;;;;;;;;5132078;27;20236;-18
2022/05/26 07:31:30;;;;;;;13.13;3.50;;;;;;;;;;5128519;27;20723;-18
2022/05/26 07:33:58;;;;;;;8.43;2.80;;;;;;;;;;5131069;27;20227;-18
2022/05/26 07:41:56;;;;;;;8.15;2.92;;;;;;;;;;5127176;27;20223;-18
2022/05/26 07:44:25;;;;;;;12.00;3.15;;;;;;;;;;5129852;27;20228;-18
2022/05/26 07:46:52;;;;;;;9.38;3.08;;;;;;;;;;5129914;27;20702;-18
2022/05/26 07:49:20;;;;;;;10.15;3.35;;;;;;;;;;5131725;27;20222;-18
2022/05/26 07:51:47;;;;;;;7.13;2.42;;;;;;;;;;5131749;27;20236;-18
2022/05/26 07:54:14;;;;;;;8.93;3.03;;;;;;;;;;5130004;27;20223;-18
2022/05/26 07:56:42;;;;;;;9.40;2.83;;;;;;;;;;5131590;27;20247;-18
2022/05/26 07:59:10;;;;;;;7.28;2.65;;;;;;;;;;5131300;27;20694;-18
2022/05/26 08:01:38;;;;;;;6.43;2.50;;;;;;;;;;5130765;27;20242;-18
2022/05/26 08:04:07;;;;;;;7.72;2.40;;;;;;;;;;5131501;27;20646;-17
2022/05/26 08:06:34;;;;;;;8.48;2.67;;;;;;;;;;5129783;27;20355;-17
2022/05/26 08:09:02;;;;;;;5.78;2.35;;;;;;;;;;5131219;27;20234;-19
2022/05/26 08:11:29;;;;;;;7.25;2.28;;;;;;;;;;5131410;27;20231;-19
2022/05/26 08:13:56;;;;;;;4.68;2.40;;;;;;;;;;5131197;27;20231;-19
2022/05/26 08:16:23;;;;;;;7.03;2.45;;;;;;;;;;5128898;27;20227;-19
2022/05/26 08:18:52;;;;;;;8.57;2.38;;;;;;;;;;5131538;27;20248;-19
2022/05/26 08:21:19;;;;;;;7.25;2.47;;;;;;;;;;5130522;27;20243;-20
2022/05/26 08:23:47;;;;;;;6.05;1.90;;;;;;;;;;5131457;27;20223;-19
2022/05/26 08:26:15;;;;;;;4.20;1.85;;;;;;;;;;5129577;27;20308;-19
2022/05/26 08:28:43;;;;;;;6.43;2.03;;;;;;;;;;5131297;27;20227;-20
2022/05/26 08:31:13;;;;;;;6.65;1.73;;;;;;;;;;5129477;27;20721;-19
2022/05/26 08:33:40;;;;;;;5.75;2.10;;;;;;;;;;5122855;27;20223;-20
2022/05/26 08:36:10;;;;;;;3.42;1.55;;;;;;;;;;5131002;27;20231;-19
2022/05/26 08:38:37;;;;;;;4.35;1.50;;;;;;;;;;5129267;27;20231;-19
2022/05/26 08:41:05;;;;;;;5.75;1.73;;;;;;;;;;5130952;27;20231;-19
2022/05/26 08:43:39;;;;;;;6.35;1.70;;;;;;;;;;5131019;27;20245;-20
2022/05/26 08:46:07;;;;;;;10.07;1.50;;;;;;;;;;5132117;27;20267;-19
2022/05/26 08:48:41;;;;;;;8.30;1.90;;;;;;;;;;5132887;27;20236;-19
2022/05/26 08:51:10;;;;;;;5.13;1.67;;;;;;;;;;5134321;27;20231;-19
2022/05/26 08:53:39;;;;;;;5.85;1.58;;;;;;;;;;5134461;27;20675;-19
2022/05/26 08:56:06;;;;;;;7.20;1.73;;;;;;;;;;5133663;27;20231;-19
2022/05/26 08:58:35;;;;;;;3.88;1.48;;;;;;;;;;5134138;27;20227;-19
2022/05/26 09:01:03;;;;;;;7.13;1.80;;;;;;;;;;5130989;27;20690;-19
2022/05/26 09:03:30;;;;;;;2.30;1.00;;;;;;;;;;5134202;27;20227;-18
2022/05/26 09:05:58;;;;;;;5.97;1.50;;;;;;;;;;5134016;27;20234;-19
2022/05/26 09:14:00;;;;;;;4.35;1.55;;;;;;;;;;5109390;27;20223;-18
2022/05/26 09:16:27;;;;;;;5.60;1.75;;;;;;;;;;5132552;27;20219;-19
2022/05/26 09:19:06;;;;;;;4.15;1.23;;;;;;;;;;5133926;27;20234;-19
2022/05/26 09:21:34;;;;;;;4.85;1.25;;;;;;;;;;5131040;27;20601;-19
2022/05/26 09:24:15;;;;;;;4.93;1.40;;;;;;;;;;5133727;27;20237;-18
2022/05/26 09:26:44;;;;;;;2.47;1.00;;;;;;;;;;5126651;27;20215;-19
2022/05/26 09:29:11;;;;;;;4.22;1.38;;;;;;;;;;5126411;27;20215;-19
2022/05/26 09:31:44;;;;;;;2.90;1.10;;;;;;;;;;5132215;27;21039;-20
2022/05/26 09:35:01;;;;;;;3.20;1.35;;;;;;;;;;5127323;27;20234;-19
2022/05/26 09:37:36;;;;;;;4.95;1.45;;;;;;;;;;5133575;27;20242;-19
2022/05/26 09:40:11;;;;;;;3.50;1.50;;;;;;;;;;5133610;27;20233;-19
2022/05/26 09:42:40;;;;;;;3.53;1.13;;;;;;;;;;5116547;27;20226;-19
2022/05/26 09:45:10;;;;;;;5.82;1.60;;;;;;;;;;5131124;27;20235;-20
2022/05/26 09:47:39;;;;;;;4.80;1.20;;;;;;;;;;5132554;27;20239;-19
2022/05/26 09:50:07;;;;;;;5.78;1.40;;;;;;;;;;5133359;27;20263;-19
2022/05/26 09:52:54;;;;;;;3.78;1.23;;;;;;;;;;5129771;27;20230;-19
2022/05/26 09:55:24;;;;;;;3.88;1.10;;;;;;;;;;5131166;27;20235;-19
2022/05/26 09:57:53;;;;;;;4.50;1.27;;;;;;;;;;5133518;27;20239;-19
2022/05/26 10:00:35;;;;;;;5.00;1.40;;;;;;;;;;5131354;27;20729;-19
2022/05/26 10:03:04;;;;;;;5.68;1.48;;;;;;;;;;5133088;27;20965;-19
2022/05/26 10:05:33;;;;;;;2.40;1.10;;;;;;;;;;5131588;27;20235;-19
2022/05/26 10:08:03;;;;;;;3.38;1.30;;;;;;;;;;5133195;27;20303;-19
2022/05/26 10:10:37;;;;;;;3.67;1.50;;;;;;;;;;5132883;27;20222;-18
2022/05/26 10:13:10;;;;;;;4.47;1.90;;;;;;;;;;5132584;27;20230;-19
2022/05/26 10:15:41;;;;;;;4.35;1.42;;;;;;;;;;5128556;27;20243;-19
2022/05/26 10:18:13;;;;;;;3.47;1.40;;;;;;;;;;5125329;27;20258;-19
2022/05/26 10:20:43;;;;;;;3.63;1.60;;;;;;;;;;5124843;27;20227;-19
2022/05/26 10:23:40;;;;;;;5.13;1.70;;;;;;;;;;5132746;27;20271;-18
2022/05/26 10:26:10;;;;;;;6.00;1.60;;;;;;;;;;5060285;28;20238;-18
2022/05/26 10:28:51;;;;;;;2.30;1.17;;;;;;;;;;5109717;27;20231;-18
2022/05/26 10:31:22;;;;;;;4.75;1.80;;;;;;;;;;5125576;27;20215;-18
2022/05/26 10:33:57;;;;;;;2.00;1.27;;;;;;;;;;5132554;27;20235;-18
2022/05/26 10:36:26;;;;;;;3.17;1.58;;;;;;;;;;5132678;27;20211;-18
2022/05/26 10:39:06;;;;;;;3.95;1.70;;;;;;;;;;5130670;27;20220;-18
2022/05/26 10:41:35;;;;;;;4.30;1.80;;;;;;;;;;5132647;27;20227;-18
2022/05/26 10:44:05;;;;;;;6.20;1.75;;;;;;;;;;5132615;27;20223;-19
2022/05/26 10:46:32;;;;;;;3.58;1.40;;;;;;;;;;5131260;27;20223;-18
2022/05/26 10:49:01;;;;;;;3.47;1.48;;;;;;;;;;5132793;27;20223;-18
2022/05/26 10:51:30;;;;;;;3.92;1.60;;;;;;;;;;5130700;27;20230;-19
2022/05/26 10:53:58;;;;;;;5.13;1.58;;;;;;;;;;5132565;27;20242;-19
2022/05/26 10:56:27;;;;;;;3.83;1.60;;;;;;;;;;5132492;27;20216;-19
2022/05/26 10:59:04;;;;;;;2.25;1.20;;;;;;;;;;5132392;27;20243;-18
2022/05/26 11:01:34;;;;;;;6.18;1.70;;;;;;;;;;5130799;27;20724;-19
2022/05/26 11:04:05;;;;;;;4.57;1.67;;;;;;;;;;5131483;27;20263;-18
2022/05/26 11:06:33;;;;;;;4.55;1.73;;;;;;;;;;5131928;27;20729;-18
2022/05/26 11:09:07;;;;;;;4.65;1.52;;;;;;;;;;5131256;27;20282;-19
2022/05/26 11:11:35;;;;;;;3.88;1.40;;;;;;;;;;5130273;27;20243;-19
2022/05/26 11:14:04;;;;;;;2.05;1.42;;;;;;;;;;5132088;27;20641;-18
2022/05/26 11:19:23;;;;;;;3.58;1.23;;;;;;;;;;5126539;27;20219;-20
2022/05/26 11:21:51;;;;;;;4.75;1.38;;;;;;;;;;5132161;27;20250;-20
2022/05/26 11:24:18;;;;;;;5.30;1.45;;;;;;;;;;5129780;27;20387;-20
2022/05/26 11:26:47;;;;;;;3.90;1.30;;;;;;;;;;5131651;27;20231;-19
2022/05/26 11:29:17;;;;;;;5.38;1.63;;;;;;;;;;5131326;27;20231;-19
2022/05/26 11:37:23;;;;;;;4.25;1.17;;;;;;;;;;5112854;27;20229;-19
2022/05/26 11:39:52;;;;;;;4.32;1.08;;;;;;;;;;5131737;27;20225;-19
2022/05/26 11:42:25;;;;;;;4.38;1.40;;;;;;;;;;5131620;27;20820;-19
2022/05/26 11:44:56;;;;;;;2.58;1.02;;;;;;;;;;5130930;27;20238;-19
2022/05/26 11:47:31;;;;;;;4.05;1.45;;;;;;;;;;5129633;27;20231;-19
2022/05/26 11:50:03;;;;;;;5.65;1.20;;;;;;;;;;5131905;27;20231;-19
2022/05/26 11:52:54;;;;;;;1.55;0.95;;;;;;;;;;5131582;27;20235;-19
2022/05/26 11:55:26;;;;;;;4.85;1.40;;;;;;;;;;5124204;27;20246;-19
2022/05/26 11:57:53;;;;;;;3.88;1.27;;;;;;;;;;5131554;27;20614;-19
2022/05/26 12:00:23;;;;;;;5.03;1.05;;;;;;;;;;5130615;27;20212;-19
2022/05/26 12:03:17;;;;;;;6.40;1.50;;;;;;;;;;5131454;27;20245;-19
2022/05/26 12:05:46;;;;;;;3.60;1.10;;;;;;;;;;5124940;27;20223;-19
2022/05/26 12:08:24;;;;;;;5.03;1.20;;;;;;;;;;5129889;27;20709;-19
2022/05/26 12:10:51;;;;;;;4.47;1.35;;;;;;;;;;5126491;27;20234;-19
2022/05/26 12:13:27;;;;;;;4.45;1.15;;;;;;;;;;5131350;27;20242;-19
2022/05/26 12:16:06;;;;;;;7.10;1.60;;;;;;;;;;5130220;27;20215;-19
2022/05/26 12:18:37;;;;;;;3.78;0.95;;;;;;;;;;5130411;27;20666;-19
2022/05/26 12:21:10;;;;;;;4.50;1.35;;;;;;;;;;5134002;27;21202;-19
2022/05/26 12:23:38;;;;;;;4.10;1.15;;;;;;;;;;5134391;27;20243;-19
2022/05/26 12:26:24;;;;;;;3.78;1.45;;;;;;;;;;5134726;27;20258;-19
2022/05/26 12:28:51;;;;;;;3.10;1.05;;;;;;;;;;5128317;27;20227;-19
2022/05/26 12:31:20;;;;;;;3.90;1.52;;;;;;;;;;5133346;27;20227;-19
2022/05/26 12:34:06;;;;;;;3.75;1.02;;;;;;;;;;5134681;27;20225;-19
2022/05/26 12:36:36;;;;;;;1.90;0.90;;;;;;;;;;5134482;27;20301;-19
2022/05/26 12:39:07;;;;;;;4.07;1.20;;;;;;;;;;5134612;27;20215;-20
2022/05/26 12:41:36;;;;;;;4.82;1.40;;;;;;;;;;5133931;27;20983;-19
2022/05/26 12:44:35;;;;;;;2.47;0.93;;;;;;;;;;5129714;27;20713;-19
2022/05/26 12:47:09;;;;;;;6.72;1.10;;;;;;;;;;5132662;27;20227;-19
2022/05/26 12:49:45;;;;;;;2.85;1.10;;;;;;;;;;5134213;27;20222;-19
2022/05/26 12:52:13;;;;;;;2.88;1.10;;;;;;;;;;5127547;27;20716;-19
2022/05/26 12:54:41;;;;;;;3.38;0.93;;;;;;;;;;5126505;27;20238;-19
2022/05/26 12:57:09;;;;;;;3.70;1.20;;;;;;;;;;5134165;27;20238;-19
2022/05/26 12:59:36;;;;;;;4.30;1.23;;;;;;;;;;5134284;27;20235;-19
2022/05/26 13:02:05;;;;;;;3.47;0.90;;;;;;;;;;5131422;27;20227;-20
2022/05/26 13:04:35;;;;;;;3.38;1.02;;;;;;;;;;5133870;27;20243;-19
2022/05/26 13:07:05;;;;;;;3.25;0.80;;;;;;;;;;5134333;27;20211;-19
2022/05/26 13:09:33;;;;;;;2.88;0.82;;;;;;;;;;5134014;27;20234;-19
2022/05/26 13:12:01;;;;;;;2.72;0.65;;;;;;;;;;5133757;27;20716;-18
2022/05/26 13:14:31;;;;;;;2.60;1.00;;;;;;;;;;5132444;27;20227;-19
2022/05/26 13:16:58;;;;;;;4.82;1.05;;;;;;;;;;5132642;27;20620;-19
2022/05/26 13:19:26;;;;;;;4.05;0.95;;;;;;;;;;5133678;27;20211;-19
2022/05/26 13:21:55;;;;;;;4.63;1.00;;;;;;;;;;5133399;27;20242;-19
2022/05/26 13:24:27;;;;;;;3.63;1.00;;;;;;;;;;5131814;27;20295;-19
2022/05/26 13:26:55;;;;;;;5.38;1.13;;;;;;;;;;5133981;27;20227;-19
2022/05/26 13:29:23;;;;;;;2.45;0.77;;;;;;;;;;5133737;27;20230;-19
2022/05/26 13:34:35;;;;;;;3.08;0.85;;;;;;;;;;5131682;27;20752;-19
2022/05/26 13:37:15;;;;;;;3.53;0.80;;;;;;;;;;5133273;27;20230;-19
2022/05/26 13:39:43;;;;;;;3.72;1.08;;;;;;;;;;5126215;27;20235;-19
2022/05/26 13:42:10;;;;;;;3.92;0.80;;;;;;;;;;5125538;27;20219;-19
2022/05/26 13:44:38;;;;;;;3.30;0.65;;;;;;;;;;5133488;27;20234;-19
2022/05/26 13:47:08;;;;;;;3.47;0.93;;;;;;;;;;5131504;27;20234;-20
2022/05/26 13:49:37;;;;;;;2.05;0.93;;;;;;;;;;5133427;27;20235;-19
2022/05/26 13:52:08;;;;;;;3.22;0.98;;;;;;;;;;5133551;27;20232;-19
2022/05/26 13:54:38;;;;;;;2.55;0.70;;;;;;;;;;5133239;27;20262;-18
2022/05/26 13:57:11;;;;;;;4.30;0.88;;;;;;;;;;5131949;27;20984;-19
2022/05/26 13:59:42;;;;;;;2.88;0.85;;;;;;;;;;5133830;27;20239;-19
2022/05/26 14:02:10;;;;;;;2.90;1.10;;;;;;;;;;5126062;27;20211;-20
2022/05/26 14:04:39;;;;;;;5.93;1.17;;;;;;;;;;5133199;27;20271;-18
2022/05/26 14:07:28;;;;;;;3.65;0.90;;;;;;;;;;5132266;27;20224;-19
2022/05/26 14:10:01;;;;;;;3.33;1.00;;;;;;;;;;5129409;27;20219;-19
2022/05/26 14:12:30;;;;;;;5.13;1.10;;;;;;;;;;5133296;27;20254;-19
2022/05/26 14:14:57;;;;;;;3.28;1.17;;;;;;;;;;5133239;27;20234;-19
2022/05/26 14:17:25;;;;;;;3.28;1.00;;;;;;;;;;5131364;27;21030;-19
2022/05/26 14:19:52;;;;;;;5.70;1.40;;;;;;;;;;5131203;27;20231;-19
2022/05/26 14:22:21;;;;;;;5.22;1.42;;;;;;;;;;5132937;27;20744;-19
2022/05/26 14:24:49;;;;;;;5.15;1.77;;;;;;;;;;5132918;27;20732;-18
2022/05/26 14:27:18;;;;;;;6.82;1.88;;;;;;;;;;5132132;27;20227;-19
2022/05/26 14:29:45;;;;;;;4.80;1.73;;;;;;;;;;5130782;27;20224;-19
2022/05/26 14:32:14;;;;;;;7.32;2.47;;;;;;;;;;5127106;27;20239;-19
2022/05/26 14:34:43;;;;;;;4.35;1.73;;;;;;;;;;5125083;27;20277;-19
2022/05/26 14:37:10;;;;;;;4.85;1.73;;;;;;;;;;5124693;27;20230;-19
2022/05/26 14:39:37;;;;;;;4.90;2.20;;;;;;;;;;5132612;27;20242;-19
2022/05/26 14:42:06;;;;;;;8.52;2.53;;;;;;;;;;5131187;27;20238;-18
2022/05/26 14:44:34;;;;;;;6.32;2.35;;;;;;;;;;5132622;27;20223;-19
2022/05/26 14:47:01;;;;;;;4.95;2.53;;;;;;;;;;5131191;27;20219;-19
2022/05/26 14:49:29;;;;;;;7.13;2.50;;;;;;;;;;5132525;27;20219;-19
2022/05/26 14:51:56;;;;;;;6.45;2.30;;;;;;;;;;5130126;27;20724;-19
2022/05/26 14:57:08;;;;;;;5.88;2.20;;;;;;;;;;5132383;27;20219;-19
2022/05/26 14:59:37;;;;;;;6.85;2.72;;;;;;;;;;5132276;27;20235;-19
2022/05/26 15:02:09;;;;;;;5.90;2.75;;;;;;;;;;5123963;27;20231;-19
2022/05/26 15:04:37;;;;;;;5.43;2.55;;;;;;;;;;5131633;27;20236;-19
2022/05/26 15:07:05;;;;;;;7.63;2.90;;;;;;;;;;5132558;27;20253;-19
2022/05/26 15:09:32;;;;;;;6.25;2.70;;;;;;;;;;5131829;27;20227;-20
2022/05/26 15:12:00;;;;;;;5.78;2.85;;;;;;;;;;5132256;27;20815;-19
2022/05/26 15:14:27;;;;;;;4.90;2.47;;;;;;;;;;5130344;27;20611;-19
2022/05/26 15:16:57;;;;;;;7.15;2.40;;;;;;;;;;5130127;27;20230;-19
2022/05/26 15:19:27;;;;;;;9.90;2.30;;;;;;;;;;5132138;27;20702;-19
2022/05/26 15:21:56;;;;;;;6.00;2.33;;;;;;;;;;5132176;27;20235;-19
2022/05/26 15:24:24;;;;;;;4.70;2.15;;;;;;;;;;5129947;27;20231;-19
2022/05/26 15:26:51;;;;;;;4.45;1.95;;;;;;;;;;5131942;27;20242;-19
2022/05/26 15:29:18;;;;;;;5.68;1.98;;;;;;;;;;5132052;27;20327;-19
2022/05/26 15:31:46;;;;;;;5.65;2.28;;;;;;;;;;5130690;27;20235;-19
2022/05/26 15:34:14;;;;;;;5.60;1.98;;;;;;;;;;5132200;27;20686;-19